createdAt,value
2022-08-22T00:15:57.334Z,98571.59
2022-08-22T00:35:59.191Z,98562.72
2022-08-22T00:56:01.147Z,98560.13
2022-08-22T01:16:03.379Z,98552.78
2022-08-22T01:36:05.276Z,98548.91
2022-08-22T01:56:07.038Z,98539.47
2022-08-22T02:16:08.986Z,98511.53
2022-08-22T02:36:10.959Z,98510.00
2022-08-22T02:56:12.786Z,98513.03
2022-08-22T03:16:14.564Z,98515.63
2022-08-22T03:36:16.377Z,98514.69
2022-08-22T03:56:18.247Z,98519.25
2022-08-22T04:16:20.079Z,98525.19
2022-08-22T04:36:22.123Z,98524.84
2022-08-22T04:56:24.026Z,98534.53
2022-08-22T05:16:25.869Z,98535.03
2022-08-22T05:36:28.081Z,98562.34
2022-08-22T05:56:41.435Z,98570.72
2022-08-22T06:16:47.588Z,98588.25
2022-08-22T07:17:42.690Z,98612.13
2022-08-22T07:37:45.065Z,98609.59
2022-08-22T07:57:47.012Z,98626.75
2022-08-22T16:36:40.957Z,98675.94
2022-08-22T16:56:45.279Z,98707.97
2022-08-22T17:16:50.881Z,98726.22
2022-08-22T17:36:55.766Z,98705.75
2022-08-22T17:57:05.547Z,98750.06
2022-08-22T18:17:08.914Z,98750.44
2022-08-22T18:37:13.906Z,98762.00
2022-08-22T18:57:16.933Z,98747.75
2022-08-22T19:17:19.092Z,98741.09
2022-08-22T19:37:32.574Z,98755.34
2022-08-22T19:57:35.870Z,98740.03
2022-08-22T20:17:37.971Z,98740.59
2022-08-22T20:38:05.457Z,98758.03
2022-08-22T20:58:01.995Z,98765.75
2022-08-22T21:18:03.971Z,98754.88
2022-08-22T21:38:24.699Z,98729.38
2022-08-22T21:58:36.322Z,98724.81
2022-08-22T22:18:39.419Z,98736.97
2022-08-22T22:38:41.546Z,98724.56
2022-08-22T22:58:43.656Z,98747.44
2022-08-22T23:18:46.011Z,98756.34
2022-08-22T23:38:47.908Z,98749.81
2022-08-22T23:58:49.728Z,98746.50
